Time;durP1;ratioP1;P1;durP2;ratioP2;P2;SDS_P1;SDS_P2;PMS_P1;PMS_P2;Temp;Humidity;BMP_temperature;BMP_pressure;BME280_temperature;BME280_humidity;BME280_pressure;Samples;Min_cycle;Max_cycle;Signal;HPM_P1;HPM_P2
2022/02/01 00:00:04;;;;;;;60.75;22.40;;;;;;;-0.05;72.16;97576.88;5108805;28;20046;-71
2022/02/01 00:02:40;;;;;;;70.32;24.30;;;;;;;-0.08;72.32;97575.50;5107769;28;20055;-72
2022/02/01 00:05:19;;;;;;;79.45;24.95;;;;;;;-0.12;72.54;97579.75;5114076;27;20026;-71
2022/02/01 00:13:57;;;;;;;80.63;23.58;;;;;;;-0.21;72.43;97570.47;5112465;28;20039;-73
2022/02/01 00:37:21;;;;;;;73.22;26.55;;;;;;;-0.36;72.74;97596.13;5110686;28;20031;-72
2022/02/01 00:39:55;;;;;;;71.03;25.83;;;;;;;-0.44;72.51;97595.72;5112603;28;20456;-71
2022/02/01 00:42:20;;;;;;;86.72;29.60;;;;;;;-0.53;72.56;97598.00;5112061;28;20019;-72
2022/02/01 00:44:46;;;;;;;107.63;31.98;;;;;;;-0.61;72.66;97607.31;5112200;28;20050;-72
2022/02/01 00:47:11;;;;;;;440.20;102.45;;;;;;;-0.63;72.98;97606.75;5111918;28;20444;-73
2022/02/01 00:49:37;;;;;;;414.13;94.63;;;;;;;-0.66;72.89;97616.13;5092215;28;20024;-73
2022/02/01 00:52:04;;;;;;;350.52;77.32;;;;;;;-0.69;73.03;97613.94;5111837;28;20019;-73
2022/02/01 00:54:30;;;;;;;566.63;130.73;;;;;;;-0.67;73.14;97619.88;5111810;28;20035;-72
2022/02/01 00:56:55;;;;;;;491.02;109.57;;;;;;;-0.66;73.03;97620.69;5111426;28;20087;-73
2022/02/01 00:59:21;;;;;;;200.85;49.78;;;;;;;-0.64;73.70;97629.34;5112109;28;20019;-72
2022/02/01 01:01:46;;;;;;;106.00;30.65;;;;;;;-0.62;73.62;97624.53;5092652;28;20528;-72
2022/02/01 01:04:12;;;;;;;270.48;76.82;;;;;;;-0.60;73.53;97619.72;5111984;28;20046;-73
2022/02/01 01:06:37;;;;;;;287.02;82.20;;;;;;;-0.65;73.95;97619.63;5093118;28;20089;-73
2022/02/01 01:09:03;;;;;;;258.08;71.70;;;;;;;-0.69;74.16;97618.47;5111959;28;20020;-73
2022/02/01 01:11:29;;;;;;;109.95;34.50;;;;;;;-0.70;73.71;97623.06;5111480;28;20103;-72
2022/02/01 01:43:59;;;;;;;54.15;20.13;;;;;;;-0.61;74.42;97655.78;5109001;28;20112;-72
2022/02/01 01:54:21;;;;;;;49.35;19.05;;;;;;;-0.62;74.92;97673.84;5110712;27;20088;-72
2022/02/01 01:56:47;;;;;;;49.88;18.67;;;;;;;-0.61;74.96;97675.44;5092189;28;20402;-72
2022/02/01 01:59:13;;;;;;;59.80;22.33;;;;;;;-0.61;75.22;97675.44;5110169;28;20057;-72
2022/02/01 02:01:40;;;;;;;66.40;23.38;;;;;;;-0.66;74.91;97675.38;5090139;28;20028;-72
2022/02/01 02:04:07;;;;;;;63.80;21.88;;;;;;;-0.70;74.52;97665.31;5109935;28;20042;-72
2022/02/01 02:06:32;;;;;;;59.55;21.15;;;;;;;-0.71;74.93;97661.81;5107668;28;20031;-71
2022/02/01 02:09:04;;;;;;;62.45;20.02;;;;;;;-0.69;75.04;97675.88;5109784;28;20065;-72
2022/02/01 02:11:39;;;;;;;52.72;18.92;;;;;;;-0.70;74.47;97686.88;5110093;28;20425;-73
2022/02/01 02:16:51;;;;;;;59.83;22.17;;;;;;;-0.88;74.53;97685.19;5107770;27;20031;-72
2022/02/01 02:19:18;;;;;;;59.75;22.83;;;;;;;-1.02;74.29;97682.81;5108806;28;20019;-72
2022/02/01 02:21:56;;;;;;;54.42;20.42;;;;;;;-1.10;74.39;97684.00;5109117;28;20062;-72
2022/02/01 02:24:23;;;;;;;53.38;21.73;;;;;;;-1.21;74.30;97680.28;5091355;28;20464;-72
2022/02/01 02:26:50;;;;;;;57.10;20.90;;;;;;;-1.27;74.58;97677.75;5109791;28;20108;-72
2022/02/01 02:29:16;;;;;;;57.58;22.42;;;;;;;-1.39;74.63;97675.91;5109295;28;20016;-72
2022/02/01 02:31:42;;;;;;;57.97;22.00;;;;;;;-1.47;74.19;97692.41;5109293;28;20074;-72
2022/02/01 02:34:12;;;;;;;62.08;22.70;;;;;;;-1.55;74.88;97698.13;5091312;28;20482;-72
2022/02/01 02:36:43;;;;;;;;;;;;;;;-1.55;75.10;97711.59;5089976;28;20751;-72
2022/02/01 02:39:22;;;;;;;67.22;26.73;;;;;;;-1.51;75.59;97718.13;5109656;28;20387;-72
2022/02/01 02:42:04;;;;;;;80.30;26.65;;;;;;;-1.52;75.26;97722.69;5108529;28;20025;-72
2022/02/01 02:47:13;;;;;;;78.13;25.77;;;;;;;-1.47;75.95;97735.44;5088516;28;20062;-72
2022/02/01 02:49:39;;;;;;;59.70;22.58;;;;;;;-1.47;76.46;97731.94;5089542;28;20043;-72
2022/02/01 02:52:04;;;;;;;74.30;25.15;;;;;;;-1.46;76.55;97734.38;5089393;28;20026;-72
2022/02/01 02:54:30;;;;;;;56.88;21.98;;;;;;;-1.44;76.86;97734.97;5088954;28;20043;-72
2022/02/01 02:57:02;;;;;;;53.20;18.63;;;;;;;-1.40;76.72;97740.69;5088903;28;20027;-72
2022/02/01 02:59:29;;;;;;;54.53;20.00;;;;;;;-1.38;76.49;97741.25;5080779;28;20047;-72
2022/02/01 03:01:55;;;;;;;49.47;18.15;;;;;;;-1.35;76.94;97749.69;5088862;28;20051;-72
2022/02/01 03:04:24;;;;;;;50.95;18.02;;;;;;;-1.28;77.45;97757.63;5087806;28;20087;-72
2022/02/01 03:06:50;;;;;;;53.13;17.20;;;;;;;-1.24;77.48;97761.47;5088560;28;20039;-72
2022/02/01 03:09:18;;;;;;;51.45;18.55;;;;;;;-1.23;77.74;97755.03;5088646;28;20026;-72
2022/02/01 03:11:44;;;;;;;50.13;16.98;;;;;;;-1.25;77.75;97751.78;5088671;28;20028;-72
2022/02/01 03:14:58;;;;;;;46.78;16.95;;;;;;;-1.23;77.28;97763.13;5088672;28;20027;-72
2022/02/01 03:19:49;;;;;;;46.95;16.80;;;;;;;-1.17;77.32;97779.38;5088185;28;20036;-72
2022/02/01 03:22:22;;;;;;;45.72;17.13;;;;;;;-1.17;77.46;97782.88;5086857;28;20422;-72
2022/02/01 03:24:49;;;;;;;49.92;16.35;;;;;;;-1.16;77.68;97781.81;5088649;28;20058;-72
2022/02/01 03:27:15;;;;;;;49.10;18.67;;;;;;;-1.13;78.05;97786.72;5075743;28;20016;-72
2022/02/01 03:29:41;;;;;;;42.03;15.18;;;;;;;-1.12;78.51;97788.38;5088832;28;20024;-75
2022/02/01 03:32:07;;;;;;;49.53;16.15;;;;;;;-1.12;77.78;97785.66;5087920;28;20012;-75
2022/02/01 03:34:33;;;;;;;44.03;15.68;;;;;;;-1.12;77.64;97799.13;5079577;28;20044;-75
2022/02/01 03:36:59;;;;;;;42.83;16.33;;;;;;;-1.09;77.50;97801.34;5087920;28;20611;-75
2022/02/01 03:39:24;;;;;;;43.15;15.77;;;;;;;-1.08;77.38;97802.19;5087969;28;20476;-74
2022/02/01 03:41:51;;;;;;;33.58;14.80;;;;;;;-1.04;77.74;97792.59;5088362;28;20028;-75
2022/02/01 03:44:17;;;;;;;39.22;15.88;;;;;;;-0.98;77.08;97790.81;5104034;28;20039;-75
2022/02/01 03:46:51;;;;;;;42.38;15.70;;;;;;;-0.93;77.39;97788.22;5108154;28;20032;-75
2022/02/01 03:49:17;;;;;;;37.88;14.10;;;;;;;-0.87;77.42;97781.06;5108561;28;20114;-75
2022/02/01 03:51:42;;;;;;;42.47;15.85;;;;;;;-0.81;77.10;97785.50;5088575;28;20039;-75
2022/02/01 03:54:07;;;;;;;48.17;18.73;;;;;;;-0.79;76.82;97780.69;5108299;28;20069;-74
2022/02/01 03:56:33;;;;;;;38.15;16.27;;;;;;;-0.75;76.98;97773.78;5110626;28;20026;-74
2022/02/01 03:58:58;;;;;;;37.22;14.63;;;;;;;-0.70;76.90;97767.66;5108319;28;20471;-75
2022/02/01 04:01:24;;;;;;;43.22;16.20;;;;;;;-0.67;76.55;97759.94;5108236;28;20421;-74
2022/02/01 04:03:49;;;;;;;37.35;15.07;;;;;;;-0.67;76.54;97759.09;5108087;28;20526;-75
2022/02/01 04:06:15;;;;;;;36.88;14.57;;;;;;;-0.69;76.64;97753.97;5089972;28;20030;-75
2022/02/01 04:08:41;;;;;;;39.45;15.05;;;;;;;-0.68;76.98;97754.75;5108094;28;20034;-74
2022/02/01 04:11:07;;;;;;;45.22;17.85;;;;;;;-0.73;76.81;97757.34;5107999;28;20490;-75
2022/02/01 04:13:32;;;;;;;47.25;18.48;;;;;;;-0.78;76.86;97758.09;5108118;28;20032;-75
2022/02/01 04:15:57;;;;;;;50.20;19.50;;;;;;;-0.81;76.70;97766.66;5109560;28;20077;-74
2022/02/01 04:18:23;;;;;;;59.97;23.23;;;;;;;-0.82;76.64;97760.47;5109080;28;20302;-75
2022/02/01 04:20:49;;;;;;;50.30;20.33;;;;;;;-0.83;76.85;97774.97;5109223;28;20034;-74
2022/02/01 04:23:14;;;;;;;53.33;17.77;;;;;;;-0.84;77.04;97784.09;5108923;28;20020;-76
2022/02/01 04:25:40;;;;;;;55.63;20.38;;;;;;;-0.88;76.44;97779.41;5091042;28;20368;-75
2022/02/01 04:28:05;;;;;;;85.65;28.10;;;;;;;-0.91;76.86;97778.84;5109373;28;20016;-74
2022/02/01 04:30:31;;;;;;;127.57;39.60;;;;;;;-0.93;76.90;97777.44;5109211;28;20081;-75
2022/02/01 04:32:57;;;;;;;180.60;54.53;;;;;;;-0.99;76.62;97768.44;5108925;28;20031;-74
2022/02/01 04:35:25;;;;;;;156.63;45.53;;;;;;;-0.93;76.91;97782.84;5109116;28;20077;-75
2022/02/01 04:37:54;;;;;;;54.95;18.85;;;;;;;-0.88;76.61;97796.41;5109076;28;20028;-75
2022/02/01 04:40:20;;;;;;;82.47;23.23;;;;;;;-0.87;76.53;97792.66;5109150;28;20016;-75
2022/02/01 04:42:46;;;;;;;47.72;16.55;;;;;;;-0.84;77.19;97791.34;5108653;28;20039;-74
2022/02/01 04:45:14;;;;;;;62.85;19.70;;;;;;;-0.81;77.10;97791.69;5109355;28;20027;-74
2022/02/01 04:47:41;;;;;;;63.80;19.33;;;;;;;-0.81;76.86;97805.13;5108750;28;20058;-75
2022/02/01 04:50:13;;;;;;;43.72;15.10;;;;;;;-0.80;76.84;97804.09;5110355;28;20033;-74
2022/02/01 04:52:41;;;;;;;46.78;16.75;;;;;;;-0.81;76.77;97807.84;5094077;28;20547;-75
2022/02/01 04:55:07;;;;;;;48.17;16.90;;;;;;;-0.82;77.07;97816.16;5094260;28;20024;-75
2022/02/01 04:57:32;;;;;;;48.47;18.75;;;;;;;-0.82;76.69;97817.00;5094266;28;20028;-75
2022/02/01 04:59:58;;;;;;;52.63;20.58;;;;;;;-0.74;76.77;97823.88;5094068;28;20034;-75
2022/02/01 05:02:23;;;;;;;46.00;18.92;;;;;;;-0.68;76.67;97831.00;5093884;28;20604;-74
2022/02/01 05:04:48;;;;;;;45.30;17.67;;;;;;;-0.67;76.45;97829.94;5095004;28;20035;-74
2022/02/01 05:07:14;;;;;;;44.00;15.57;;;;;;;-0.65;76.26;97835.91;5094695;28;20118;-75
2022/02/01 05:09:40;;;;;;;34.80;13.38;;;;;;;-0.68;76.57;97840.94;5114066;28;20103;-74
2022/02/01 05:12:09;;;;;;;48.25;16.30;;;;;;;-0.76;76.26;97847.53;5112687;28;20032;-74
2022/02/01 05:14:34;;;;;;;39.33;14.88;;;;;;;-0.75;76.55;97843.78;5113844;28;20054;-74
2022/02/01 05:17:02;;;;;;;40.50;16.15;;;;;;;-0.75;76.49;97843.78;5113762;28;20474;-75
2022/02/01 05:21:58;;;;;;;48.08;17.40;;;;;;;-0.70;77.31;97853.81;5113230;28;20411;-75
2022/02/01 05:24:25;;;;;;;42.75;16.38;;;;;;;-0.68;77.18;97855.25;5113530;28;20292;-74
2022/02/01 05:26:53;;;;;;;43.10;16.08;;;;;;;-0.70;76.62;97846.59;5112753;28;20028;-75
2022/02/01 05:29:19;;;;;;;39.05;15.73;;;;;;;-0.72;76.43;97864.84;5109036;28;20016;-74
2022/02/01 05:31:45;;;;;;;41.42;15.93;;;;;;;-0.73;76.32;97862.38;5110654;27;20511;-74
2022/02/01 05:34:10;;;;;;;39.90;14.75;;;;;;;-0.72;76.60;97861.31;5113449;28;20020;-74
2022/02/01 05:36:36;;;;;;;44.58;16.00;;;;;;;-0.70;76.65;97865.44;5094946;28;20020;-74
2022/02/01 05:39:20;;;;;;;52.33;20.25;;;;;;;-0.69;76.93;97872.47;5095245;28;20020;-74
2022/02/01 05:41:46;;;;;;;43.05;17.17;;;;;;;-0.63;76.76;97879.59;5111839;28;20383;-72
2022/02/01 05:44:13;;;;;;;56.33;18.73;;;;;;;-0.64;76.43;97899.50;5113365;28;20056;-73
2022/02/01 05:46:39;;;;;;;113.65;29.85;;;;;;;-0.75;76.29;97897.63;5113692;28;20020;-71
2022/02/01 05:49:05;;;;;;;113.25;30.88;;;;;;;-0.82;76.17;97891.56;5094997;28;20489;-71
2022/02/01 05:51:31;;;;;;;108.13;28.60;;;;;;;-0.84;76.42;97882.88;5094794;28;20019;-72
2022/02/01 05:53:57;;;;;;;104.85;28.35;;;;;;;-0.87;76.49;97877.97;5112774;28;20024;-72
2022/02/01 05:56:23;;;;;;;73.60;23.58;;;;;;;-0.86;76.59;97882.31;5094786;28;20028;-72
2022/02/01 05:58:48;;;;;;;78.30;23.40;;;;;;;-0.85;76.47;97889.34;5093360;28;20484;-72
2022/02/01 06:01:14;;;;;;;148.02;35.80;;;;;;;-0.90;76.26;97896.25;5111660;28;20123;-71
2022/02/01 06:03:40;;;;;;;126.32;32.78;;;;;;;-0.91;76.14;97901.88;5110570;28;20102;-72
2022/02/01 06:06:07;;;;;;;142.20;33.47;;;;;;;-0.91;76.64;97915.34;5112093;28;20031;-71
2022/02/01 06:08:33;;;;;;;110.97;28.05;;;;;;;-0.90;76.81;97907.00;5112528;28;20024;-72
2022/02/01 06:10:58;;;;;;;121.97;31.63;;;;;;;-0.85;76.72;97908.19;5114506;27;20046;-72
2022/02/01 06:13:24;;;;;;;112.72;29.92;;;;;;;-0.83;76.50;97911.44;5111896;28;20039;-72
2022/02/01 06:15:49;;;;;;;98.32;25.33;;;;;;;-0.81;76.85;97920.13;5114237;27;20031;-72
2022/02/01 06:18:14;;;;;;;80.78;23.23;;;;;;;-0.83;76.77;97924.91;5112235;28;20027;-72
2022/02/01 06:20:40;;;;;;;62.67;19.45;;;;;;;-0.76;76.88;97917.53;5110803;28;20408;-73
2022/02/01 06:23:16;;;;;;;49.90;16.35;;;;;;;-0.75;76.82;97911.09;5090202;28;20020;-72
2022/02/01 06:25:51;;;;;;;53.83;17.27;;;;;;;-0.76;76.91;97912.97;5107543;27;20420;-72
2022/02/01 06:28:26;;;;;;;58.63;18.98;;;;;;;-0.76;76.65;97928.31;5091804;28;20028;-72
2022/02/01 06:30:52;;;;;;;59.75;19.67;;;;;;;-0.81;76.48;97915.53;5112418;28;20028;-72
2022/02/01 06:33:18;;;;;;;53.67;19.70;;;;;;;-0.87;76.51;97916.50;5110196;28;20035;-70
2022/02/01 06:35:44;;;;;;;58.80;19.55;;;;;;;-0.90;77.09;97916.97;5112208;28;20468;-70
2022/02/01 06:38:10;;;;;;;60.10;20.88;;;;;;;-0.90;77.58;97915.09;5088082;28;20035;-72
2022/02/01 06:40:36;;;;;;;49.88;17.67;;;;;;;-0.90;77.28;97925.84;5112255;28;20022;-71
2022/02/01 06:43:01;;;;;;;47.35;18.85;;;;;;;-0.89;77.21;97932.06;5112905;27;20127;-71
2022/02/01 06:45:27;;;;;;;55.40;19.98;;;;;;;-0.85;77.55;97941.31;5111819;28;20353;-71
2022/02/01 06:47:53;;;;;;;45.28;17.13;;;;;;;-0.84;77.46;97942.13;5109806;28;20047;-71
2022/02/01 06:50:20;;;;;;;52.22;19.35;;;;;;;-0.83;77.94;97943.75;5110880;28;20028;-71
2022/02/01 06:52:47;;;;;;;59.17;20.80;;;;;;;-0.76;77.56;97947.16;5110302;28;20407;-72
2022/02/01 06:55:14;;;;;;;53.00;18.63;;;;;;;-0.75;77.36;97952.28;5111135;28;20618;-71
2022/02/01 06:57:40;;;;;;;50.58;18.63;;;;;;;-0.72;78.12;97955.56;5124699;27;20134;-72
2022/02/01 07:00:08;;;;;;;52.42;19.52;;;;;;;-0.73;77.96;97957.47;5110271;28;20023;-71
2022/02/01 07:02:34;;;;;;;54.67;21.13;;;;;;;-0.76;77.40;97947.16;5109184;28;20023;-72
2022/02/01 07:04:59;;;;;;;55.40;21.58;;;;;;;-0.75;77.60;97956.88;5111205;28;20027;-71
2022/02/01 07:07:25;;;;;;;62.35;22.27;;;;;;;-0.77;77.43;97956.28;5111378;28;20063;-72
2022/02/01 07:09:50;;;;;;;59.47;22.05;;;;;;;-0.79;77.67;97961.91;5109392;28;20026;-72
2022/02/01 07:12:16;;;;;;;44.80;17.55;;;;;;;-0.79;77.73;97978.06;5109950;28;20378;-71
2022/02/01 07:14:41;;;;;;;48.75;19.48;;;;;;;-0.80;77.99;97971.03;5110408;28;20043;-71
2022/02/01 07:17:07;;;;;;;62.00;22.05;;;;;;;-0.78;78.19;97978.88;5091642;28;20035;-71
2022/02/01 07:19:32;;;;;;;49.80;19.75;;;;;;;-0.73;78.37;97975.47;5110476;28;20084;-70
2022/02/01 07:21:57;;;;;;;49.88;19.42;;;;;;;-0.65;78.21;97981.34;5110964;28;20428;-72
2022/02/01 07:24:29;;;;;;;51.17;20.83;;;;;;;-0.61;77.79;97987.88;5110176;28;20039;-72
2022/02/01 07:26:58;;;;;;;58.40;20.33;;;;;;;-0.55;77.95;97979.91;5110800;28;20781;-72
2022/02/01 07:29:25;;;;;;;54.03;19.67;;;;;;;-0.59;77.97;97976.88;5110971;27;20479;-72
2022/02/01 07:31:51;;;;;;;46.58;17.10;;;;;;;-0.62;77.81;97977.34;5110601;28;20101;-72
2022/02/01 07:34:16;;;;;;;58.33;22.08;;;;;;;-0.66;77.94;97979.72;5109721;28;20023;-72
2022/02/01 07:36:43;;;;;;;45.40;17.27;;;;;;;-0.68;78.00;97979.13;5111168;28;20032;-73
2022/02/01 07:39:09;;;;;;;53.15;18.25;;;;;;;-0.71;78.12;97979.59;5092310;28;20090;-72
2022/02/01 07:41:34;;;;;;;48.90;15.93;;;;;;;-0.78;78.27;97984.28;5110441;28;20023;-73
2022/02/01 07:44:00;;;;;;;50.35;17.63;;;;;;;-0.81;77.93;97982.03;5106982;28;20119;-72
2022/02/01 07:46:26;;;;;;;58.40;19.58;;;;;;;-0.78;78.14;97989.66;5114191;27;20048;-73
2022/02/01 07:48:52;;;;;;;61.03;20.30;;;;;;;-0.81;77.91;97990.94;5111095;28;20077;-73
2022/02/01 07:51:17;;;;;;;47.22;18.23;;;;;;;-0.82;77.97;97989.31;5111011;28;20024;-74
2022/02/01 07:53:43;;;;;;;47.88;17.73;;;;;;;-0.78;78.21;97989.66;5090795;28;20124;-74
2022/02/01 07:56:08;;;;;;;46.72;18.33;;;;;;;-0.76;78.17;97993.75;5111492;28;20032;-74
2022/02/01 07:58:34;;;;;;;43.38;16.48;;;;;;;-0.68;77.70;97989.91;5107116;28;20368;-74
2022/02/01 08:00:59;;;;;;;53.78;19.13;;;;;;;-0.67;77.45;97999.63;5110664;28;20107;-74
2022/02/01 08:03:26;;;;;;;45.25;16.65;;;;;;;-0.67;77.68;97990.72;5110524;28;20093;-73
2022/02/01 08:05:51;;;;;;;49.42;17.65;;;;;;;-0.65;77.33;98002.06;5107797;28;20028;-74
2022/02/01 08:08:17;;;;;;;41.88;16.48;;;;;;;-0.63;77.62;97998.09;5090578;28;20364;-76
2022/02/01 08:10:50;;;;;;;45.75;19.25;;;;;;;-0.61;77.92;98000.53;5110584;28;20069;-73
2022/02/01 08:14:10;;;;;;;46.22;17.27;;;;;;;-0.54;77.30;98008.50;5089756;28;20032;-72
2022/02/01 08:21:10;;;;;;;36.72;14.45;;;;;;;-0.26;77.30;97996.19;5110006;28;20040;-72
2022/02/01 08:23:35;;;;;;;38.95;14.70;;;;;;;-0.23;77.20;97993.03;5110729;28;20056;-73
2022/02/01 08:26:01;;;;;;;40.55;13.82;;;;;;;-0.19;77.24;97994.16;5095601;28;20087;-75
2022/02/01 08:28:27;;;;;;;33.40;13.10;;;;;;;-0.13;77.16;98003.19;5115827;27;20031;-74
2022/02/01 08:30:54;;;;;;;30.98;11.73;;;;;;;0.01;76.91;97995.66;5094667;28;20032;-74
2022/02/01 08:33:20;;;;;;;29.73;11.88;;;;;;;0.09;76.44;97997.97;5116963;27;20026;-73
2022/02/01 08:35:46;;;;;;;30.65;12.45;;;;;;;0.12;76.49;97992.91;5117111;27;20023;-74
2022/02/01 08:38:12;;;;;;;27.90;10.98;;;;;;;0.11;75.52;97993.97;5109769;28;20026;-74
2022/02/01 08:40:37;;;;;;;31.50;12.63;;;;;;;0.17;76.06;97994.91;5111759;27;20023;-73
2022/02/01 08:43:03;;;;;;;25.52;11.50;;;;;;;0.27;75.09;97996.97;5112259;27;20157;-74
2022/02/01 08:45:28;;;;;;;25.33;10.50;;;;;;;0.19;75.34;97998.19;5114230;28;20034;-73
2022/02/01 08:47:56;;;;;;;28.27;9.80;;;;;;;0.12;74.76;97995.59;5109822;27;20054;-74
2022/02/01 08:50:27;;;;;;;30.80;12.13;;;;;;;0.14;75.00;98004.28;5109321;28;20030;-74
2022/02/01 08:52:57;;;;;;;32.55;11.60;;;;;;;0.16;74.82;97990.56;5093424;28;20034;-69
2022/02/01 08:56:09;;;;;;;49.38;17.23;;;;;;;0.14;74.93;97996.19;5113289;28;20050;-69
2022/02/01 08:58:08;;;;;;;40.97;13.43;;;;;;;0.16;73.71;97984.34;5098275;27;20035;-71
2022/02/01 09:00:34;;;;;;;35.85;11.73;;;;;;;0.14;74.05;97985.41;5109500;27;20031;-69
2022/02/01 09:03:03;;;;;;;29.92;9.05;;;;;;;0.22;73.69;97988.78;5111561;28;20490;-73
2022/02/01 09:05:30;;;;;;;39.03;20.73;;;;;;;0.26;72.78;97989.94;5092951;28;20051;-70
2022/02/01 09:07:58;;;;;;;25.65;10.13;;;;;;;0.21;72.18;97979.03;5106266;28;20031;-71
2022/02/01 09:10:24;;;;;;;33.40;10.90;;;;;;;0.19;72.03;97979.31;5111714;28;20035;-72
2022/02/01 09:12:49;;;;;;;99.45;32.55;;;;;;;0.21;71.00;97981.75;5110825;28;20038;-71
2022/02/01 09:15:15;;;;;;;22.02;8.82;;;;;;;0.22;71.74;97980.69;5111765;28;20063;-71
2022/02/01 09:17:43;;;;;;;24.25;7.35;;;;;;;0.20;71.73;97980.94;5112082;28;20038;-69
2022/02/01 09:20:08;;;;;;;20.75;8.13;;;;;;;0.18;71.25;97985.75;5112410;28;20039;-70
2022/02/01 09:22:34;;;;;;;19.23;7.40;;;;;;;0.17;71.50;97981.41;5091686;28;20032;-70
2022/02/01 09:24:59;;;;;;;31.13;12.52;;;;;;;0.14;71.32;97995.38;5111646;28;20511;-69
2022/02/01 09:27:25;;;;;;;21.60;8.30;;;;;;;0.04;72.22;97998.66;5111292;28;20360;-70
2022/02/01 09:29:50;;;;;;;19.77;7.60;;;;;;;-0.04;71.85;98005.25;5111996;28;20036;-72
2022/02/01 09:32:16;;;;;;;42.13;20.15;;;;;;;-0.07;72.62;98004.94;5108498;28;20088;-73
2022/02/01 09:34:42;;;;;;;20.25;9.32;;;;;;;-0.06;72.67;98004.69;5091014;28;20042;-70
2022/02/01 09:37:07;;;;;;;16.45;7.50;;;;;;;-0.06;72.91;98003.88;5111487;28;20032;-69
2022/02/01 09:39:33;;;;;;;18.05;8.43;;;;;;;-0.08;72.47;98009.50;5111393;28;20475;-67
2022/02/01 09:42:00;;;;;;;22.40;8.65;;;;;;;-0.09;72.59;98010.56;5111630;28;20079;-69
2022/02/01 09:44:26;;;;;;;16.50;6.07;;;;;;;-0.12;72.70;98019.09;5110237;28;20044;-73
2022/02/01 09:46:52;;;;;;;14.60;6.00;;;;;;;-0.03;73.00;98012.28;5111533;27;21470;-71
2022/02/01 09:49:25;;;;;;;17.05;8.10;;;;;;;0.03;72.14;98015.91;5092067;28;20020;-71
2022/02/01 09:51:57;;;;;;;14.02;5.22;;;;;;;0.02;71.64;98018.84;5111653;28;20043;-71
2022/02/01 09:54:28;;;;;;;14.10;4.90;;;;;;;-0.08;71.07;98019.47;5111437;28;20549;-71
2022/02/01 09:56:55;;;;;;;14.95;5.28;;;;;;;-0.19;71.32;98019.25;5111514;28;20032;-70
2022/02/01 09:59:35;;;;;;;13.93;5.55;;;;;;;-0.27;71.27;98019.59;5110892;28;20081;-69
2022/02/01 10:02:09;;;;;;;14.20;5.47;;;;;;;-0.28;71.33;98009.88;5111138;27;20046;-66
2022/02/01 10:04:35;;;;;;;13.98;6.68;;;;;;;-0.29;71.59;98002.03;5111557;28;20024;-71
2022/02/01 10:07:12;;;;;;;19.02;7.82;;;;;;;-0.33;71.72;98002.53;5108115;28;20383;-70
2022/02/01 10:09:50;;;;;;;23.55;8.85;;;;;;;-0.34;72.20;98000.03;5110377;27;20040;-68
2022/02/01 10:12:17;;;;;;;19.95;7.63;;;;;;;-0.34;72.17;98000.03;5110633;28;20031;-70
2022/02/01 10:14:52;;;;;;;20.98;8.98;;;;;;;-0.35;72.74;97988.47;5092328;28;20100;-70
2022/02/01 10:17:42;;;;;;;29.15;10.38;;;;;;;-0.34;72.65;97978.47;5111073;28;20024;-70
2022/02/01 10:20:09;;;;;;;31.63;11.45;;;;;;;-0.35;73.30;97972.28;5111165;28;20029;-69
2022/02/01 10:22:36;;;;;;;34.67;12.70;;;;;;;-0.29;72.86;97964.31;5092654;28;20165;-67
2022/02/01 10:25:24;;;;;;;22.77;8.93;;;;;;;-0.23;72.76;97963.38;5111120;28;20072;-69
2022/02/01 10:27:58;;;;;;;24.27;8.85;;;;;;;-0.17;72.92;97962.41;5091811;28;20547;-69
2022/02/01 10:30:40;;;;;;;23.35;9.20;;;;;;;-0.07;73.20;97959.91;5091620;28;20035;-75
2022/02/01 10:35:58;;;;;;;22.65;7.30;;;;;;;-0.04;72.73;97951.34;5110103;28;20096;-70
2022/02/01 10:38:29;;;;;;;20.52;8.00;;;;;;;-0.07;72.52;97949.13;5109264;28;20050;-72
2022/02/01 10:40:55;;;;;;;18.65;7.57;;;;;;;-0.12;72.50;97951.72;5110752;28;20032;-73
2022/02/01 10:43:31;;;;;;;44.50;13.82;;;;;;;-0.11;73.08;97950.66;5108753;27;20454;-72
2022/02/01 10:46:12;;;;;;;39.28;14.10;;;;;;;-0.06;72.70;97950.75;5109714;28;20480;-72
2022/02/01 10:48:39;;;;;;;33.15;12.68;;;;;;;0.03;73.34;97945.81;5108626;27;20102;-71
2022/02/01 10:51:12;;;;;;;43.25;18.20;;;;;;;0.05;72.89;97949.06;5110862;27;20059;-71
2022/02/01 10:53:38;;;;;;;41.63;16.73;;;;;;;0.10;73.10;97943.78;5086654;28;20059;-70
2022/02/01 10:56:07;;;;;;;34.92;13.57;;;;;;;0.22;73.27;97946.44;5107121;28;20073;-70
2022/02/01 10:58:33;;;;;;;36.20;14.82;;;;;;;0.27;73.10;97945.72;5107834;28;20027;-69
2022/02/01 11:00:59;;;;;;;31.55;13.82;;;;;;;0.35;72.80;97945.34;5092916;28;20490;-69
2022/02/01 11:03:26;;;;;;;29.35;13.10;;;;;;;0.37;73.36;97947.78;5108606;27;20034;-71
2022/02/01 11:05:53;;;;;;;32.83;12.80;;;;;;;0.31;72.39;97938.78;5108448;27;20480;-71
2022/02/01 11:08:29;;;;;;;33.53;14.23;;;;;;;0.28;72.93;97937.38;5107752;28;20114;-71
2022/02/01 11:10:56;;;;;;;38.15;16.23;;;;;;;0.25;72.80;97940.56;5107130;27;20015;-70
2022/02/01 11:13:22;;;;;;;32.47;13.63;;;;;;;0.24;72.87;97940.81;5092580;27;20494;-70
2022/02/01 11:15:59;;;;;;;41.67;16.15;;;;;;;0.21;73.28;97934.00;5105710;28;20480;-77
2022/02/01 11:18:26;;;;;;;44.50;20.67;;;;;;;0.19;72.99;97938.84;5106018;27;20026;-77
2022/02/01 11:21:06;;;;;;;42.33;15.65;;;;;;;0.19;73.55;97933.47;5105644;27;20110;-77
2022/02/01 11:23:42;;;;;;;37.10;15.00;;;;;;;0.20;73.30;97934.25;5101110;28;20395;-72
2022/02/01 11:26:50;;;;;;;31.52;13.38;;;;;;;0.25;72.84;97934.34;5087617;28;20038;-75
2022/02/01 11:31:55;;;;;;;31.52;13.35;;;;;;;0.40;73.27;97913.06;5109508;28;20076;-76
2022/02/01 11:34:38;;;;;;;29.75;11.68;;;;;;;0.46;72.77;97913.94;5112362;27;20023;-77
2022/02/01 11:37:10;;;;;;;28.85;12.05;;;;;;;0.54;73.10;97915.41;5111143;28;20479;-76
2022/02/01 11:39:49;;;;;;;40.22;15.52;;;;;;;0.64;72.69;97909.38;5104872;28;20031;-80
2022/02/01 11:42:16;;;;;;;35.70;14.40;;;;;;;0.70;73.00;97897.59;5105211;28;20042;-76
2022/02/01 11:44:42;;;;;;;43.03;15.75;;;;;;;0.69;72.85;97898.66;5108672;28;20043;-76
2022/02/01 11:47:09;;;;;;;33.47;13.18;;;;;;;0.67;73.04;97890.81;5103666;27;20112;-76
2022/02/01 11:49:55;;;;;;;35.67;13.85;;;;;;;0.62;72.76;97881.81;5109672;28;20019;-77
2022/02/01 11:52:22;;;;;;;31.10;13.27;;;;;;;0.59;73.11;97880.44;5108509;28;20063;-79
2022/02/01 11:54:59;;;;;;;30.30;13.93;;;;;;;0.59;72.83;97881.25;5109642;28;20646;-75
2022/02/01 11:57:27;;;;;;;34.55;14.10;;;;;;;0.64;73.10;97877.81;5090537;28;20051;-76
2022/02/01 12:00:02;;;;;;;33.85;13.20;;;;;;;0.66;73.13;97869.47;5113682;28;20020;-75
2022/02/01 12:02:34;;;;;;;30.95;14.35;;;;;;;0.65;72.77;97878.63;5114717;28;20078;-77
2022/02/01 12:05:13;;;;;;;38.33;14.13;;;;;;;0.67;73.28;97881.88;5114447;28;20047;-78
2022/02/01 12:07:42;;;;;;;32.40;14.75;;;;;;;0.69;73.49;97868.97;5111475;28;20106;-79
2022/02/01 12:10:13;;;;;;;32.55;13.45;;;;;;;0.73;73.44;97865.53;5094921;28;20050;-77
2022/02/01 12:12:39;;;;;;;28.90;13.13;;;;;;;0.79;73.53;97852.13;5113986;28;20051;-77
2022/02/01 12:15:05;;;;;;;32.30;13.77;;;;;;;0.83;72.96;97845.16;5113404;28;20486;-78
2022/02/01 12:17:32;;;;;;;27.30;11.65;;;;;;;0.95;73.35;97824.28;5113906;27;20523;-78
2022/02/01 12:20:01;;;;;;;32.78;13.93;;;;;;;1.06;72.97;97810.91;5113700;28;20080;-76
2022/02/01 12:22:36;;;;;;;36.72;16.33;;;;;;;1.08;72.90;97811.47;5113614;28;20031;-78
2022/02/01 12:25:07;;;;;;;29.83;14.27;;;;;;;1.10;73.04;97812.84;5113867;28;20038;-74
2022/02/01 12:27:38;;;;;;;32.08;15.05;;;;;;;1.14;73.10;97813.97;5095024;28;20022;-78
2022/02/01 12:30:06;;;;;;;31.02;13.35;;;;;;;1.18;73.23;97815.13;5113345;28;20028;-77
2022/02/01 12:32:33;;;;;;;34.08;13.48;;;;;;;1.18;72.97;97812.41;5078151;28;20488;-76
2022/02/01 12:34:59;;;;;;;34.30;14.15;;;;;;;1.17;72.34;97810.78;5113424;28;20068;-81
2022/02/01 12:37:24;;;;;;;33.17;14.05;;;;;;;1.21;72.45;97810.28;5113794;28;20433;-79
2022/02/01 12:40:07;;;;;;;28.30;14.10;;;;;;;1.24;72.64;97807.88;5095412;28;20026;-78
2022/02/01 12:42:42;;;;;;;31.77;14.52;;;;;;;1.29;73.12;97810.66;5094845;28;20457;-81
2022/02/01 12:48:04;;;;;;;35.65;15.13;;;;;;;1.30;73.07;97795.28;5110636;28;20075;-83
2022/02/01 12:50:29;;;;;;;35.17;14.90;;;;;;;1.29;73.01;97799.84;5113008;28;20554;-81
2022/02/01 12:53:01;;;;;;;35.15;14.27;;;;;;;1.31;73.09;97797.72;5112550;28;20123;-82